Portada
METAR-TAF:

METAR-TAF

Aeroports :

Luang Prabang, Laos

latitud: 19-53N, longitud: 102-08E, altitud: 305 m

Observació

L'informe es va fer fa 28 minuts, a les 06:00 UTC
Vent 4 kt del Nord-Oest
Temperatura 30°C
Humitat 38%
Pressió 1012 hPa
Visibilitat 10 km o més
Núvols disperses a una alçada de 2000 ft
Núvols disperses a una alçada de 6000 ft
Cel ennuvolat a una alçada de 8000 ft

METAR: VLLB 280600Z 32004KT 9999 SCT020 SCT060 BKN080 30/14 Q1012 NOSIG

Hora: 13:28 (06:28 UTC)

Pronòstic

L'informe es va fer fa 1 hora i 28 minuts, a les 05:00 UTC
Pronòstic vàlid del 28 a les 06 UTC al 29 a les 06 UTC
Vent 4 kt del Nord-Oest
Visibilitat 10 km o més
Núvols disperses a una alçada de 2000 ft
Escasses núvols a una alçada de 6000 ft

TAF: VLLB 280500Z 2806/2906 32004KT 9999 SCT020 FEW060

Observacions i pronòstics meteorològics de més de 4000 aeroports (METAR i TAF).

Les estacions disponibles són els punts grocs i vermells al mapa.

Posi el ratolí al punt desitjat per veure el nom de l'estació.

Feu clic per veure les observacions i els pronòstics meteorològics.

Per canviar el mapa: feu clic els botons verds amb una creu de color negre per apropar; al botó verd amb un guió per allunyar la imatge; o en les fletxes verdes per a mapes adjacents.


METAR-TAF: